createdAt,value
2018-11-06T00:01:32.471Z,77.62
2018-11-06T00:04:01.690Z,78.51
2018-11-06T00:06:28.917Z,78.07
2018-11-06T00:08:56.291Z,77.77
2018-11-06T00:11:23.687Z,76.98
2018-11-06T00:13:51.093Z,76.55
2018-11-06T00:16:19.148Z,76.93
2018-11-06T00:18:46.627Z,77.63
2018-11-06T00:21:14.322Z,77.13
2018-11-06T00:23:41.616Z,76.28
2018-11-06T00:26:08.807Z,76.42
2018-11-06T00:28:36.371Z,76.83
2018-11-06T00:31:03.723Z,77.49
2018-11-06T00:33:31.259Z,77.57
2018-11-06T00:35:58.480Z,77.50
2018-11-06T00:38:25.838Z,77.28
2018-11-06T00:40:53.070Z,77.13
2018-11-06T00:43:20.357Z,76.46
2018-11-06T00:45:47.635Z,76.41
2018-11-06T00:48:14.985Z,76.64
2018-11-06T00:50:42.221Z,76.33
2018-11-06T00:53:09.598Z,75.98
2018-11-06T00:55:37.998Z,75.57
2018-11-06T00:58:05.532Z,75.09
2018-11-06T01:00:33.717Z,75.11
2018-11-06T01:03:01.760Z,75.25
2018-11-06T01:05:29.055Z,75.05
2018-11-06T01:07:56.417Z,75.32
2018-11-06T01:10:23.762Z,75.81
2018-11-06T01:12:50.976Z,76.56
2018-11-06T01:15:18.265Z,76.20
2018-11-06T01:17:46.742Z,76.53
2018-11-06T01:20:15.623Z,77.05
2018-11-06T01:22:42.854Z,77.67
2018-11-06T01:25:12.241Z,77.89
2018-11-06T01:27:39.706Z,77.34
2018-11-06T01:30:10.257Z,78.02
2018-11-06T01:32:37.412Z,78.12
2018-11-06T01:35:05.971Z,78.42
2018-11-06T01:40:11.481Z,77.10
2018-11-06T01:42:46.060Z,76.88
2018-11-06T01:45:14.557Z,76.82
2018-11-06T01:47:41.919Z,76.26
2018-11-06T01:50:11.360Z,76.25
2018-11-06T01:52:39.296Z,75.76
2018-11-06T01:55:07.270Z,75.59
2018-11-06T01:57:34.686Z,75.97
2018-11-06T02:00:02.099Z,75.37
2018-11-06T02:02:29.758Z,75.95
2018-11-06T02:04:56.954Z,75.43
2018-11-06T02:07:24.146Z,74.99
2018-11-06T02:09:51.454Z,75.03
2018-11-06T02:12:18.741Z,75.31
2018-11-06T02:14:45.943Z,75.71
2018-11-06T02:17:13.122Z,76.41
2018-11-06T02:19:40.661Z,76.68
2018-11-06T02:22:07.962Z,77.01
2018-11-06T02:24:35.229Z,77.48
2018-11-06T02:27:02.465Z,77.80
2018-11-06T02:29:29.926Z,77.17
2018-11-06T02:31:57.077Z,76.76
2018-11-06T02:34:24.338Z,76.26
2018-11-06T02:36:51.564Z,77.61
2018-11-06T02:39:18.827Z,78.50
2018-11-06T02:41:45.983Z,79.46
2018-11-06T02:44:13.627Z,79.51
2018-11-06T02:46:40.805Z,78.61
2018-11-06T02:49:08.049Z,77.99
2018-11-06T02:51:35.287Z,77.19
2018-11-06T02:54:05.404Z,77.11
2018-11-06T02:56:33.494Z,76.78
2018-11-06T02:59:02.977Z,76.15
2018-11-06T03:01:30.362Z,76.17
2018-11-06T03:03:58.134Z,76.33
2018-11-06T03:06:25.635Z,75.86
2018-11-06T03:08:52.910Z,76.72
2018-11-06T03:11:20.184Z,76.94
2018-11-06T03:13:47.738Z,76.80
2018-11-06T03:16:15.101Z,76.95
2018-11-06T03:18:43.114Z,78.36
2018-11-06T03:21:10.404Z,78.74
2018-11-06T03:23:37.754Z,78.89
2018-11-06T03:26:05.002Z,78.70
2018-11-06T03:28:32.318Z,78.40
2018-11-06T03:30:59.635Z,78.16
2018-11-06T03:33:28.189Z,78.62
2018-11-06T03:35:55.990Z,78.59
2018-11-06T03:38:23.313Z,79.33
2018-11-06T03:40:50.465Z,80.27
2018-11-06T03:43:18.155Z,79.53
2018-11-06T03:45:45.583Z,80.07
2018-11-06T03:48:12.845Z,79.89
2018-11-06T03:50:40.087Z,79.28
2018-11-06T03:53:07.274Z,78.86
2018-11-06T03:55:34.598Z,78.35
2018-11-06T03:58:01.879Z,78.63
2018-11-06T04:00:29.096Z,78.13
2018-11-06T04:02:56.670Z,78.03
2018-11-06T04:05:23.981Z,78.28
2018-11-06T04:07:51.554Z,77.74
2018-11-06T04:10:18.721Z,77.48
2018-11-06T04:12:46.316Z,78.08
2018-11-06T04:15:14.100Z,78.80
2018-11-06T04:17:42.224Z,78.69
2018-11-06T04:20:09.896Z,78.63
2018-11-06T04:22:37.353Z,78.94
2018-11-06T04:25:05.308Z,78.33
2018-11-06T04:27:33.481Z,77.65
2018-11-06T04:30:00.881Z,77.21
2018-11-06T04:32:28.102Z,77.35
2018-11-06T04:34:55.520Z,78.24
2018-11-06T04:37:22.713Z,78.52
2018-11-06T04:39:49.883Z,78.86
2018-11-06T04:42:17.302Z,78.54
2018-11-06T04:44:44.781Z,78.55
2018-11-06T04:47:13.788Z,79.10
2018-11-06T04:49:42.174Z,79.23
2018-11-06T04:52:09.750Z,80.07
2018-11-06T04:54:37.244Z,80.36
2018-11-06T04:57:04.723Z,80.10
2018-11-06T04:59:31.994Z,80.28
2018-11-06T05:02:00.142Z,80.68
2018-11-06T05:04:27.360Z,80.21
2018-11-06T05:06:54.781Z,80.49
2018-11-06T05:09:22.034Z,80.19
2018-11-06T05:11:49.424Z,80.78
2018-11-06T05:14:17.064Z,80.24
2018-11-06T05:16:44.539Z,79.93
2018-11-06T05:19:13.058Z,79.85
2018-11-06T05:21:41.217Z,79.47
2018-11-06T05:24:08.504Z,78.99
2018-11-06T05:26:37.290Z,78.66
2018-11-06T05:29:04.662Z,78.99
2018-11-06T05:31:32.053Z,78.79
2018-11-06T05:33:59.303Z,79.12
2018-11-06T05:36:29.010Z,79.47
2018-11-06T05:38:56.519Z,79.74
2018-11-06T05:41:23.965Z,80.27
2018-11-06T05:43:51.320Z,80.25
2018-11-06T05:46:18.965Z,80.82
2018-11-06T05:48:47.082Z,81.44
2018-11-06T05:51:14.857Z,82.08
2018-11-06T05:53:42.270Z,82.74
2018-11-06T05:56:10.433Z,82.48
2018-11-06T05:58:37.797Z,81.95
2018-11-06T06:01:05.215Z,81.83
2018-11-06T06:03:32.386Z,81.28
2018-11-06T06:05:59.661Z,80.85
2018-11-06T06:08:27.127Z,80.95
2018-11-06T06:10:54.696Z,80.51
2018-11-06T06:13:22.225Z,80.70
2018-11-06T06:15:49.688Z,80.81
2018-11-06T06:18:16.963Z,81.03
2018-11-06T06:20:44.301Z,80.78
2018-11-06T06:23:11.740Z,80.72
2018-11-06T06:25:39.106Z,81.21
2018-11-06T06:28:09.318Z,80.24
2018-11-06T06:30:37.796Z,80.05
2018-11-06T06:33:05.228Z,79.89
2018-11-06T06:35:32.686Z,80.02
2018-11-06T06:38:00.198Z,80.95
2018-11-06T06:40:27.758Z,81.14
2018-11-06T06:42:55.156Z,81.92
2018-11-06T06:45:22.499Z,82.96
2018-11-06T06:47:49.767Z,82.65
2018-11-06T06:50:18.443Z,82.69
2018-11-06T06:52:46.540Z,82.75
2018-11-06T06:55:14.598Z,81.94
2018-11-06T06:57:42.841Z,82.19
2018-11-06T07:00:12.194Z,81.96
2018-11-06T07:02:39.736Z,82.27
2018-11-06T07:05:08.521Z,83.02
2018-11-06T07:07:36.692Z,83.64
2018-11-06T07:10:05.229Z,83.50
2018-11-06T07:12:32.558Z,83.42
2018-11-06T07:14:59.816Z,83.02
2018-11-06T07:17:27.110Z,82.87
2018-11-06T07:19:55.083Z,82.32
2018-11-06T07:22:22.435Z,82.86
2018-11-06T07:24:49.741Z,82.11
2018-11-06T07:27:17.033Z,81.83
2018-11-06T07:29:44.431Z,82.67
2018-11-06T07:32:11.650Z,82.92
2018-11-06T07:34:39.730Z,83.17
2018-11-06T07:37:07.019Z,82.91
2018-11-06T07:39:34.473Z,82.47
2018-11-06T07:42:01.759Z,82.54
2018-11-06T07:44:29.075Z,82.56
2018-11-06T07:46:56.432Z,83.05
2018-11-06T07:49:23.797Z,83.05
2018-11-06T07:51:51.558Z,82.91
2018-11-06T07:54:19.234Z,82.78
2018-11-06T07:56:46.771Z,82.51
2018-11-06T07:59:14.437Z,82.70
2018-11-06T08:01:41.598Z,83.16
2018-11-06T08:04:09.196Z,83.07
2018-11-06T08:06:36.383Z,83.43
2018-11-06T08:09:07.026Z,82.21
2018-11-06T08:11:34.442Z,81.71
2018-11-06T08:14:02.060Z,82.42
2018-11-06T08:16:29.310Z,83.34
2018-11-06T08:18:56.922Z,83.93
2018-11-06T08:21:24.365Z,83.84
2018-11-06T08:23:51.899Z,84.07
2018-11-06T08:26:19.156Z,84.01
2018-11-06T08:28:46.541Z,84.19
2018-11-06T08:31:14.109Z,84.30
2018-11-06T08:33:41.703Z,84.03
2018-11-06T08:36:09.272Z,84.27
2018-11-06T08:38:36.720Z,83.44
2018-11-06T08:41:04.238Z,82.99
2018-11-06T08:43:32.146Z,83.47
2018-11-06T08:45:59.397Z,83.70
2018-11-06T08:48:26.767Z,83.68
2018-11-06T08:50:54.422Z,83.71
2018-11-06T08:53:21.750Z,83.79
2018-11-06T08:55:49.123Z,84.17
2018-11-06T08:58:16.527Z,83.37
2018-11-06T09:00:43.919Z,83.34
2018-11-06T09:03:11.094Z,82.48
2018-11-06T09:05:38.619Z,82.56
2018-11-06T09:08:06.918Z,82.85
2018-11-06T09:10:34.403Z,82.67
2018-11-06T09:13:01.747Z,82.84
2018-11-06T09:15:28.988Z,82.98
2018-11-06T09:17:56.235Z,82.91
2018-11-06T09:20:23.506Z,82.71
2018-11-06T09:22:50.756Z,83.06
2018-11-06T09:25:18.712Z,83.13
2018-11-06T09:27:46.158Z,82.56
2018-11-06T09:30:14.704Z,82.40
2018-11-06T09:32:42.029Z,82.70
2018-11-06T09:35:10.324Z,82.61
2018-11-06T09:37:37.636Z,82.90
2018-11-06T09:40:06.013Z,82.84
2018-11-06T09:42:33.224Z,82.78
2018-11-06T09:45:00.564Z,81.93
2018-11-06T09:47:27.760Z,82.07
2018-11-06T09:49:55.121Z,82.41
2018-11-06T09:52:22.483Z,82.27
2018-11-06T09:54:51.271Z,82.74
2018-11-06T09:57:18.528Z,82.70
2018-11-06T09:59:46.083Z,82.77
2018-11-06T10:02:13.366Z,82.86
2018-11-06T10:04:40.777Z,82.77
2018-11-06T10:07:08.697Z,82.08
2018-11-06T10:09:35.798Z,82.10
2018-11-06T10:12:03.107Z,81.75
2018-11-06T10:14:30.830Z,82.15
2018-11-06T10:16:58.476Z,81.08
2018-11-06T10:19:26.062Z,81.67
2018-11-06T10:21:53.291Z,81.15
2018-11-06T10:24:20.557Z,80.68
2018-11-06T10:26:47.913Z,81.61
2018-11-06T10:29:15.337Z,81.21
2018-11-06T10:31:42.714Z,81.86
2018-11-06T10:34:10.833Z,80.50
2018-11-06T10:36:38.047Z,81.48
2018-11-06T10:39:08.017Z,80.92
2018-11-06T10:41:35.945Z,81.01
2018-11-06T10:44:03.277Z,80.81
2018-11-06T10:46:30.497Z,80.80
2018-11-06T10:48:57.804Z,81.16
2018-11-06T10:51:25.240Z,80.33
2018-11-06T10:53:52.441Z,80.50
2018-11-06T10:56:19.834Z,80.13
2018-11-06T10:58:47.153Z,79.82
2018-11-06T11:01:20.172Z,79.87
2018-11-06T11:03:53.074Z,79.83
2018-11-06T11:06:20.445Z,79.63
2018-11-06T11:08:48.071Z,80.04
2018-11-06T11:11:15.461Z,79.78
2018-11-06T11:13:42.721Z,80.24
2018-11-06T11:16:10.396Z,79.55
2018-11-06T11:18:37.855Z,79.81
2018-11-06T11:21:05.491Z,79.76
2018-11-06T11:23:33.236Z,79.58
2018-11-06T11:26:00.566Z,78.76
2018-11-06T11:28:27.850Z,78.70
2018-11-06T11:30:55.411Z,78.43
2018-11-06T11:33:22.755Z,78.60
2018-11-06T11:35:50.215Z,77.97
2018-11-06T11:38:17.495Z,77.83
2018-11-06T11:40:45.030Z,77.03
2018-11-06T11:43:12.840Z,77.45
2018-11-06T11:45:40.104Z,77.32
2018-11-06T11:48:07.268Z,76.07
2018-11-06T11:50:34.816Z,76.02
2018-11-06T11:53:02.194Z,75.74
2018-11-06T11:55:29.413Z,75.03
2018-11-06T11:57:57.338Z,74.59
2018-11-06T12:00:28.577Z,74.47
2018-11-06T12:02:56.593Z,73.85
2018-11-06T12:05:23.790Z,73.58
2018-11-06T12:07:51.115Z,73.54
2018-11-06T12:10:18.306Z,71.75
2018-11-06T12:12:45.774Z,71.84
2018-11-06T12:15:14.608Z,71.03
2018-11-06T12:17:43.240Z,70.04
2018-11-06T12:20:11.295Z,70.82
2018-11-06T12:22:39.222Z,70.56
2018-11-06T12:25:06.742Z,70.83
2018-11-06T12:27:33.987Z,70.70
2018-11-06T12:30:01.274Z,69.91
2018-11-06T12:32:29.045Z,69.97
2018-11-06T12:34:56.353Z,69.98
2018-11-06T12:37:23.620Z,69.44
2018-11-06T12:39:57.538Z,68.96
2018-11-06T12:42:24.819Z,68.98
2018-11-06T12:44:52.316Z,69.53
2018-11-06T12:47:19.778Z,68.47
2018-11-06T12:49:47.086Z,68.79
2018-11-06T12:52:14.354Z,68.48
2018-11-06T12:54:41.567Z,68.27
2018-11-06T12:57:08.895Z,67.61
2018-11-06T12:59:36.354Z,67.71
2018-11-06T13:02:03.921Z,66.50
2018-11-06T13:04:31.366Z,66.69
2018-11-06T13:06:58.781Z,65.77
2018-11-06T13:09:28.340Z,65.79
2018-11-06T13:11:55.733Z,66.68
2018-11-06T13:14:23.025Z,66.80
2018-11-06T13:16:50.261Z,66.93
2018-11-06T13:19:17.539Z,66.79
2018-11-06T13:21:44.796Z,66.50
2018-11-06T13:24:12.274Z,66.34
2018-11-06T13:26:39.759Z,66.81
2018-11-06T13:29:07.742Z,66.44
2018-11-06T13:31:35.248Z,66.37
2018-11-06T13:34:02.814Z,66.21
2018-11-06T13:36:30.550Z,66.01
2018-11-06T13:38:57.911Z,65.98
2018-11-06T13:41:25.227Z,66.48
2018-11-06T13:43:53.038Z,66.16
2018-11-06T13:46:20.179Z,66.35
2018-11-06T13:48:48.585Z,66.18
2018-11-06T13:51:16.424Z,66.21
2018-11-06T13:53:44.074Z,65.85
2018-11-06T13:56:11.352Z,66.59
2018-11-06T13:58:38.584Z,66.74
2018-11-06T14:01:06.487Z,66.52
2018-11-06T14:03:33.719Z,66.16
2018-11-06T14:06:00.973Z,67.36
2018-11-06T14:08:28.273Z,67.02
2018-11-06T14:10:55.571Z,66.85
2018-11-06T14:13:23.026Z,67.34
2018-11-06T14:15:50.290Z,66.56
2018-11-06T14:18:17.838Z,66.89
2018-11-06T14:20:45.221Z,66.67
2018-11-06T14:23:12.549Z,67.20
2018-11-06T14:25:39.814Z,67.06
2018-11-06T14:28:07.242Z,67.08
2018-11-06T14:30:34.467Z,67.12
2018-11-06T14:33:01.869Z,66.75
2018-11-06T14:35:29.162Z,66.91
2018-11-06T14:37:57.192Z,66.38
2018-11-06T14:40:24.541Z,66.40
2018-11-06T14:42:53.116Z,67.43
2018-11-06T14:45:20.472Z,67.10
2018-11-06T14:47:47.845Z,67.31
2018-11-06T14:50:15.293Z,67.83
2018-11-06T14:52:42.730Z,67.24
2018-11-06T14:55:11.345Z,66.96
2018-11-06T14:57:39.253Z,67.47
2018-11-06T15:00:13.382Z,67.84
2018-11-06T15:02:41.462Z,67.57
2018-11-06T15:05:08.742Z,68.03
2018-11-06T15:07:35.993Z,68.94
2018-11-06T15:10:03.771Z,68.07
2018-11-06T15:12:31.262Z,68.68
2018-11-06T15:14:58.974Z,69.05
2018-11-06T15:17:26.436Z,69.24
2018-11-06T15:19:53.744Z,69.16
2018-11-06T15:22:21.031Z,69.50
2018-11-06T15:24:48.814Z,70.12
2018-11-06T15:27:16.351Z,70.24
2018-11-06T15:29:43.588Z,69.85
2018-11-06T15:32:10.961Z,70.54
2018-11-06T15:34:41.475Z,69.69
2018-11-06T15:37:09.824Z,69.81
2018-11-06T15:39:37.102Z,70.03
2018-11-06T15:42:04.752Z,70.51
2018-11-06T15:44:36.364Z,70.94
2018-11-06T15:47:04.205Z,70.82
2018-11-06T15:49:31.732Z,70.46
2018-11-06T15:51:59.077Z,70.78
2018-11-06T15:54:26.481Z,70.53
2018-11-06T15:56:54.037Z,70.62
2018-11-06T15:59:21.495Z,70.99
2018-11-06T16:01:49.385Z,71.59
2018-11-06T16:04:17.159Z,71.12
2018-11-06T16:06:44.999Z,71.66
2018-11-06T16:09:13.296Z,72.51
2018-11-06T16:11:40.522Z,72.13
2018-11-06T16:14:08.109Z,72.65
2018-11-06T16:16:35.462Z,73.24
2018-11-06T16:19:03.397Z,73.01
2018-11-06T16:21:30.962Z,73.55
2018-11-06T16:23:58.450Z,74.07
2018-11-06T16:26:25.793Z,74.38
2018-11-06T16:28:53.556Z,74.50
2018-11-06T16:31:21.060Z,74.96
2018-11-06T16:33:48.466Z,75.06
2018-11-06T16:36:16.114Z,75.42
2018-11-06T16:38:43.533Z,75.95
2018-11-06T16:41:10.936Z,76.00
2018-11-06T16:43:38.131Z,75.53
2018-11-06T16:46:05.408Z,76.41
2018-11-06T16:48:32.760Z,76.63
2018-11-06T16:50:59.903Z,76.77
2018-11-06T16:53:27.080Z,76.91
2018-11-06T16:55:54.351Z,77.21
2018-11-06T16:58:21.693Z,76.82
2018-11-06T17:00:49.325Z,76.84
2018-11-06T17:03:16.814Z,76.87
2018-11-06T17:05:45.359Z,77.90
2018-11-06T17:08:12.771Z,77.25
2018-11-06T17:10:40.479Z,77.30
2018-11-06T17:13:08.081Z,77.30
2018-11-06T17:15:35.278Z,76.06
2018-11-06T17:18:02.490Z,75.99
2018-11-06T17:20:29.827Z,75.77
2018-11-06T17:22:56.951Z,75.33
2018-11-06T17:25:24.281Z,75.20
2018-11-06T17:27:51.651Z,75.79
2018-11-06T17:30:19.242Z,75.45
2018-11-06T17:32:46.610Z,75.06
2018-11-06T17:35:15.101Z,75.67
2018-11-06T17:37:42.599Z,74.61
2018-11-06T17:40:14.819Z,74.78
2018-11-06T17:42:42.513Z,75.23
2018-11-06T17:45:12.222Z,74.62
2018-11-06T17:47:39.762Z,74.24
2018-11-06T17:50:08.191Z,74.55
2018-11-06T17:52:35.473Z,74.65
2018-11-06T17:55:03.319Z,74.80
2018-11-06T17:57:30.457Z,75.25
2018-11-06T17:59:57.750Z,75.30
2018-11-06T18:02:25.365Z,74.82
2018-11-06T18:04:52.579Z,75.43
2018-11-06T18:07:20.447Z,74.85
2018-11-06T18:09:47.905Z,74.69
2018-11-06T18:12:15.198Z,75.64
2018-11-06T18:14:42.468Z,75.14
2018-11-06T18:17:10.063Z,75.46
2018-11-06T18:19:37.405Z,75.52
2018-11-06T18:22:05.170Z,75.50
2018-11-06T18:24:32.436Z,75.91
2018-11-06T18:26:59.885Z,75.39
2018-11-06T18:29:27.134Z,76.00
2018-11-06T18:31:54.312Z,75.92
2018-11-06T18:34:21.479Z,76.47
2018-11-06T18:36:48.700Z,75.76
2018-11-06T18:39:15.941Z,75.61
2018-11-06T18:41:43.405Z,75.20
2018-11-06T18:44:11.001Z,74.87
2018-11-06T18:46:38.356Z,74.92
2018-11-06T18:49:06.263Z,75.37
2018-11-06T18:51:33.494Z,75.57
2018-11-06T18:54:01.000Z,75.17
2018-11-06T18:56:28.303Z,75.77
2018-11-06T18:58:55.612Z,75.06
2018-11-06T19:01:22.886Z,75.47
2018-11-06T19:03:50.418Z,75.68
2018-11-06T19:06:17.848Z,75.33
2018-11-06T19:08:47.103Z,75.35
2018-11-06T19:11:14.289Z,75.35
2018-11-06T19:13:41.747Z,75.35
2018-11-06T19:16:08.983Z,75.21
2018-11-06T19:18:36.156Z,75.25
2018-11-06T19:21:03.329Z,75.35
2018-11-06T19:23:30.499Z,74.76
2018-11-06T19:25:57.815Z,74.88
2018-11-06T19:28:25.058Z,75.01
2018-11-06T19:30:52.261Z,74.98
2018-11-06T19:33:19.475Z,74.90
2018-11-06T19:35:47.064Z,75.15
2018-11-06T19:38:14.446Z,75.41
2018-11-06T19:40:41.876Z,75.43
2018-11-06T19:43:08.990Z,75.32
2018-11-06T19:45:36.663Z,75.34
2018-11-06T19:48:04.209Z,76.86
2018-11-06T19:50:31.549Z,76.55
2018-11-06T19:52:58.875Z,76.05
2018-11-06T19:55:26.206Z,75.19
2018-11-06T19:57:53.431Z,75.22
2018-11-06T20:00:22.910Z,75.92
2018-11-06T20:02:51.500Z,76.06
2018-11-06T20:05:19.224Z,76.08
2018-11-06T20:07:47.275Z,75.32
2018-11-06T20:10:16.879Z,74.39
2018-11-06T20:12:45.686Z,74.94
2018-11-06T20:15:14.673Z,75.25
2018-11-06T20:17:42.413Z,71.49
2018-11-06T20:20:14.478Z,75.03
2018-11-06T20:22:41.861Z,74.81
2018-11-06T20:25:10.036Z,75.60
2018-11-06T20:27:37.298Z,75.26
2018-11-06T20:30:05.879Z,74.41
2018-11-06T20:32:33.174Z,73.80
2018-11-06T20:35:00.647Z,74.01
2018-11-06T20:37:27.915Z,73.98
2018-11-06T20:39:55.354Z,74.12
2018-11-06T20:42:22.596Z,72.70
2018-11-06T20:44:49.860Z,72.91
2018-11-06T20:47:17.235Z,73.89
2018-11-06T20:49:44.660Z,74.64
2018-11-06T20:52:11.942Z,75.06
2018-11-06T20:54:40.677Z,72.96
2018-11-06T20:57:08.793Z,72.89
2018-11-06T20:59:36.448Z,73.07
2018-11-06T21:02:04.132Z,68.86
2018-11-06T21:04:31.443Z,70.41
2018-11-06T21:06:58.909Z,72.05
2018-11-06T21:09:26.171Z,73.08
2018-11-06T21:11:53.446Z,73.19
2018-11-06T21:14:20.791Z,73.35
2018-11-06T21:16:47.999Z,73.79
2018-11-06T21:19:15.910Z,73.98
2018-11-06T21:21:43.337Z,74.56
2018-11-06T21:24:10.955Z,74.83
2018-11-06T21:26:38.528Z,74.30
2018-11-06T21:29:05.848Z,74.75
2018-11-06T21:31:33.227Z,74.80
2018-11-06T21:34:00.512Z,75.43
2018-11-06T21:36:27.891Z,75.18
2018-11-06T21:38:55.232Z,75.18
2018-11-06T21:41:22.458Z,75.17
2018-11-06T21:43:50.181Z,75.12
2018-11-06T21:46:17.398Z,75.23
2018-11-06T21:48:44.629Z,75.06
2018-11-06T21:51:12.031Z,75.65
2018-11-06T21:53:39.376Z,75.15
2018-11-06T21:56:06.766Z,75.92
2018-11-06T21:58:34.333Z,75.81
2018-11-06T22:01:01.548Z,75.86
2018-11-06T22:03:29.052Z,75.77
2018-11-06T22:05:56.663Z,75.26
2018-11-06T22:08:24.353Z,76.06
2018-11-06T22:10:51.737Z,75.50
2018-11-06T22:13:19.399Z,76.05
2018-11-06T22:15:46.809Z,75.07
2018-11-06T22:18:15.086Z,76.23
2018-11-06T22:20:42.440Z,77.08
2018-11-06T22:23:10.101Z,77.23
2018-11-06T22:25:37.306Z,76.34
2018-11-06T22:28:05.890Z,76.76
2018-11-06T22:30:34.838Z,76.50
2018-11-06T22:33:02.971Z,76.46
2018-11-06T22:35:30.357Z,76.10
2018-11-06T22:37:57.865Z,76.40
2018-11-06T22:40:25.075Z,76.56
2018-11-06T22:42:52.370Z,76.76
2018-11-06T22:45:19.675Z,76.45
2018-11-06T22:47:47.244Z,77.37
2018-11-06T22:50:16.191Z,76.86
2018-11-06T22:52:44.531Z,76.69
2018-11-06T22:55:12.102Z,77.04
2018-11-06T22:57:39.501Z,76.66
2018-11-06T23:00:14.412Z,76.12
2018-11-06T23:02:42.135Z,76.84
2018-11-06T23:05:09.596Z,77.06
2018-11-06T23:07:42.541Z,76.55
2018-11-06T23:10:10.395Z,76.98
2018-11-06T23:12:37.694Z,76.96
2018-11-06T23:15:05.412Z,76.87
2018-11-06T23:17:32.800Z,76.98
2018-11-06T23:20:00.071Z,77.15
2018-11-06T23:22:27.505Z,77.02
2018-11-06T23:24:54.780Z,76.98
2018-11-06T23:27:22.012Z,77.08
2018-11-06T23:29:49.944Z,77.07
2018-11-06T23:32:17.196Z,77.06
2018-11-06T23:34:44.707Z,78.10
2018-11-06T23:37:11.914Z,77.56
2018-11-06T23:39:39.190Z,77.42
2018-11-06T23:42:06.529Z,77.22
2018-11-06T23:44:33.816Z,77.71
2018-11-06T23:47:01.077Z,77.84
2018-11-06T23:49:28.616Z,77.47
2018-11-06T23:51:55.979Z,77.40
2018-11-06T23:54:23.221Z,77.55
2018-11-06T23:56:51.895Z,77.99
2018-11-06T23:59:19.203Z,77.92
